sensor_id;sensor_type;location;lat;lon;timestamp;pressure;altitude;pressure_sealevel;temperature;humidity
53754;BME280;39667;52.274;20.964;2023-03-15T00:00:55;98553.90;;;9.57;72.67
53754;BME280;39667;52.274;20.964;2023-03-15T00:03:25;98556.79;;;9.54;72.90
53754;BME280;39667;52.274;20.964;2023-03-15T00:06:00;98562.26;;;9.53;72.88
53754;BME280;39667;52.274;20.964;2023-03-15T00:08:26;98566.02;;;9.52;72.94
53754;BME280;39667;52.274;20.964;2023-03-15T00:16:56;98583.48;;;9.50;73.10
53754;BME280;39667;52.274;20.964;2023-03-15T00:19:32;98585.86;;;9.47;73.16
53754;BME280;39667;52.274;20.964;2023-03-15T00:22:33;98592.80;;;9.44;73.22
53754;BME280;39667;52.274;20.964;2023-03-15T00:25:03;98593.69;;;9.44;73.26
53754;BME280;39667;52.274;20.964;2023-03-15T00:27:38;98595.15;;;9.42;73.29
53754;BME280;39667;52.274;20.964;2023-03-15T00:30:10;98606.30;;;9.40;73.45
53754;BME280;39667;52.274;20.964;2023-03-15T00:32:43;98607.85;;;9.40;73.57
53754;BME280;39667;52.274;20.964;2023-03-15T00:35:16;98606.70;;;9.38;73.65
53754;BME280;39667;52.274;20.964;2023-03-15T00:37:45;98604.46;;;9.37;73.77
53754;BME280;39667;52.274;20.964;2023-03-15T00:40:17;98631.02;;;9.36;73.95
53754;BME280;39667;52.274;20.964;2023-03-15T00:42:46;98666.62;;;9.27;73.54
53754;BME280;39667;52.274;20.964;2023-03-15T00:46:58;98701.55;;;8.74;71.20
53754;BME280;39667;52.274;20.964;2023-03-15T00:49:26;98710.80;;;8.22;70.03
53754;BME280;39667;52.274;20.964;2023-03-15T00:51:57;98739.19;;;7.66;69.39
53754;BME280;39667;52.274;20.964;2023-03-15T00:54:25;98749.67;;;7.13;69.18
53754;BME280;39667;52.274;20.964;2023-03-15T00:57:05;98776.55;;;6.63;69.68
53754;BME280;39667;52.274;20.964;2023-03-15T00:59:33;98785.98;;;6.25;70.63
53754;BME280;39667;52.274;20.964;2023-03-15T01:02:05;98799.55;;;5.94;71.44
53754;BME280;39667;52.274;20.964;2023-03-15T01:04:38;98810.09;;;5.66;72.33
53754;BME280;39667;52.274;20.964;2023-03-15T01:07:08;98834.31;;;5.45;72.88
53754;BME280;39667;52.274;20.964;2023-03-15T01:09:38;98852.39;;;5.23;73.72
53754;BME280;39667;52.274;20.964;2023-03-15T01:12:37;98859.38;;;5.07;74.54
53754;BME280;39667;52.274;20.964;2023-03-15T01:15:14;98864.41;;;4.94;75.19
53754;BME280;39667;52.274;20.964;2023-03-15T01:17:48;98886.68;;;4.82;75.46
53754;BME280;39667;52.274;20.964;2023-03-15T01:20:16;98898.83;;;4.70;75.90
53754;BME280;39667;52.274;20.964;2023-03-15T01:22:45;98909.04;;;4.60;76.40
53754;BME280;39667;52.274;20.964;2023-03-15T01:25:19;98923.08;;;4.49;76.89
53754;BME280;39667;52.274;20.964;2023-03-15T01:27:59;98933.92;;;4.42;77.01
53754;BME280;39667;52.274;20.964;2023-03-15T01:30:34;98948.28;;;4.33;77.00
53754;BME280;39667;52.274;20.964;2023-03-15T01:33:02;98950.61;;;4.23;77.34
53754;BME280;39667;52.274;20.964;2023-03-15T01:35:32;98947.02;;;4.13;77.75
53754;BME280;39667;52.274;20.964;2023-03-15T01:38:23;98974.62;;;4.01;77.88
53754;BME280;39667;52.274;20.964;2023-03-15T01:41:16;98978.34;;;3.86;78.27
53754;BME280;39667;52.274;20.964;2023-03-15T01:44:17;98995.80;;;3.73;78.34
53754;BME280;39667;52.274;20.964;2023-03-15T01:47:14;99016.57;;;3.63;78.41
53754;BME280;39667;52.274;20.964;2023-03-15T01:50:02;99020.05;;;3.57;78.65
53754;BME280;39667;52.274;20.964;2023-03-15T01:53:20;99014.69;;;3.47;78.78
53754;BME280;39667;52.274;20.964;2023-03-15T01:56:18;99023.06;;;3.30;79.00
53754;BME280;39667;52.274;20.964;2023-03-15T01:58:59;99031.79;;;3.20;79.32
53754;BME280;39667;52.274;20.964;2023-03-15T02:02:15;99049.19;;;3.14;79.33
53754;BME280;39667;52.274;20.964;2023-03-15T02:05:43;99071.29;;;3.10;79.32
53754;BME280;39667;52.274;20.964;2023-03-15T02:08:53;99083.64;;;3.08;79.13
53754;BME280;39667;52.274;20.964;2023-03-15T02:11:57;99098.41;;;3.05;78.96
53754;BME280;39667;52.274;20.964;2023-03-15T02:14:56;99115.82;;;3.04;78.97
53754;BME280;39667;52.274;20.964;2023-03-15T02:17:45;99122.44;;;3.10;78.73
53754;BME280;39667;52.274;20.964;2023-03-15T02:20:37;99132.52;;;3.04;78.42
53754;BME280;39667;52.274;20.964;2023-03-15T02:23:53;99140.33;;;2.98;78.26
53754;BME280;39667;52.274;20.964;2023-03-15T02:26:56;99154.60;;;3.01;78.21
53754;BME280;39667;52.274;20.964;2023-03-15T02:29:28;99158.09;;;3.03;77.80
53754;BME280;39667;52.274;20.964;2023-03-15T02:32:10;99162.43;;;3.02;77.99
53754;BME280;39667;52.274;20.964;2023-03-15T02:34:40;99174.95;;;3.05;77.65
53754;BME280;39667;52.274;20.964;2023-03-15T02:37:16;99187.48;;;3.06;77.19
53754;BME280;39667;52.274;20.964;2023-03-15T02:39:54;99186.62;;;3.04;76.98
53754;BME280;39667;52.274;20.964;2023-03-15T02:42:31;99199.65;;;3.00;76.68
53754;BME280;39667;52.274;20.964;2023-03-15T02:45:29;99207.29;;;2.97;76.36
53754;BME280;39667;52.274;20.964;2023-03-15T02:48:10;99215.98;;;2.96;75.90
53754;BME280;39667;52.274;20.964;2023-03-15T02:50:47;99221.88;;;2.92;75.74
53754;BME280;39667;52.274;20.964;2023-03-15T02:53:23;99231.63;;;2.93;75.93
53754;BME280;39667;52.274;20.964;2023-03-15T02:56:03;99241.54;;;2.93;75.81
53754;BME280;39667;52.274;20.964;2023-03-15T02:58:53;99244.84;;;2.93;75.94
53754;BME280;39667;52.274;20.964;2023-03-15T03:02:46;99247.79;;;2.93;75.75
53754;BME280;39667;52.274;20.964;2023-03-15T03:06:55;99252.37;;;3.04;75.69
53754;BME280;39667;52.274;20.964;2023-03-15T03:10:54;99278.29;;;3.06;75.58
53754;BME280;39667;52.274;20.964;2023-03-15T03:14:02;99285.77;;;3.12;75.47
53754;BME280;39667;52.274;20.964;2023-03-15T03:17:42;99301.46;;;3.20;75.05
53754;BME280;39667;52.274;20.964;2023-03-15T03:21:33;99300.45;;;3.21;74.87
53754;BME280;39667;52.274;20.964;2023-03-15T03:25:10;99299.38;;;3.19;74.63
53754;BME280;39667;52.274;20.964;2023-03-15T03:28:46;99310.67;;;3.18;74.73
53754;BME280;39667;52.274;20.964;2023-03-15T03:31:31;99320.62;;;3.22;74.69
53754;BME280;39667;52.274;20.964;2023-03-15T03:34:02;99325.50;;;3.24;74.61
53754;BME280;39667;52.274;20.964;2023-03-15T03:36:45;99325.16;;;3.27;74.65
53754;BME280;39667;52.274;20.964;2023-03-15T03:40:12;99332.64;;;3.26;74.54
53754;BME280;39667;52.274;20.964;2023-03-15T03:43:17;99343.27;;;3.28;74.53
53754;BME280;39667;52.274;20.964;2023-03-15T03:46:22;99343.61;;;3.30;74.50
53754;BME280;39667;52.274;20.964;2023-03-15T03:50:24;99350.08;;;3.36;74.64
53754;BME280;39667;52.274;20.964;2023-03-15T03:54:16;99347.81;;;3.37;74.12
53754;BME280;39667;52.274;20.964;2023-03-15T03:57:14;99355.47;;;3.33;74.14
53754;BME280;39667;52.274;20.964;2023-03-15T04:01:09;99362.59;;;3.34;74.19
53754;BME280;39667;52.274;20.964;2023-03-15T04:04:39;99371.30;;;3.34;74.35
53754;BME280;39667;52.274;20.964;2023-03-15T04:07:57;99385.58;;;3.39;74.25
53754;BME280;39667;52.274;20.964;2023-03-15T04:10:41;99391.67;;;3.39;74.08
53754;BME280;39667;52.274;20.964;2023-03-15T04:13:16;99399.00;;;3.40;74.23
53754;BME280;39667;52.274;20.964;2023-03-15T04:15:52;99407.21;;;3.47;74.26
53754;BME280;39667;52.274;20.964;2023-03-15T04:18:25;99414.19;;;3.52;74.13
53754;BME280;39667;52.274;20.964;2023-03-15T04:20:54;99423.27;;;3.56;73.92
53754;BME280;39667;52.274;20.964;2023-03-15T04:23:22;99425.88;;;3.58;73.77
53754;BME280;39667;52.274;20.964;2023-03-15T04:26:10;99429.00;;;3.59;73.54
53754;BME280;39667;52.274;20.964;2023-03-15T04:29:04;99428.14;;;3.60;73.31
53754;BME280;39667;52.274;20.964;2023-03-15T04:32:11;99434.44;;;3.63;73.22
53754;BME280;39667;52.274;20.964;2023-03-15T04:34:49;99436.72;;;3.66;73.25
53754;BME280;39667;52.274;20.964;2023-03-15T04:37:29;99440.52;;;3.63;72.86
53754;BME280;39667;52.274;20.964;2023-03-15T04:41:01;99448.52;;;3.61;72.89
53754;BME280;39667;52.274;20.964;2023-03-15T04:45:15;99457.39;;;3.56;72.41
53754;BME280;39667;52.274;20.964;2023-03-15T04:48:44;99457.71;;;3.52;72.36
53754;BME280;39667;52.274;20.964;2023-03-15T04:51:58;99466.25;;;3.53;72.26
53754;BME280;39667;52.274;20.964;2023-03-15T04:55:41;99464.49;;;3.48;71.80
53754;BME280;39667;52.274;20.964;2023-03-15T04:59:33;99468.65;;;3.46;71.99
53754;BME280;39667;52.274;20.964;2023-03-15T05:02:37;99474.40;;;3.48;71.75
53754;BME280;39667;52.274;20.964;2023-03-15T05:05:40;99466.91;;;3.45;70.09
53754;BME280;39667;52.274;20.964;2023-03-15T05:09:11;99477.80;;;3.34;70.10
53754;BME280;39667;52.274;20.964;2023-03-15T05:12:53;99492.43;;;3.36;69.70
53754;BME280;39667;52.274;20.964;2023-03-15T05:16:04;99492.77;;;3.32;69.24
53754;BME280;39667;52.274;20.964;2023-03-15T05:19:44;99501.64;;;3.32;69.12
53754;BME280;39667;52.274;20.964;2023-03-15T05:23:25;99504.37;;;3.21;69.03
53754;BME280;39667;52.274;20.964;2023-03-15T05:27:15;99515.16;;;3.22;69.47
53754;BME280;39667;52.274;20.964;2023-03-15T05:31:08;99519.37;;;3.29;69.63
53754;BME280;39667;52.274;20.964;2023-03-15T05:34:18;99528.80;;;3.32;69.50
53754;BME280;39667;52.274;20.964;2023-03-15T05:37:57;99532.60;;;3.29;69.39
53754;BME280;39667;52.274;20.964;2023-03-15T05:41:28;99535.74;;;3.30;69.40
53754;BME280;39667;52.274;20.964;2023-03-15T05:45:26;99534.17;;;3.32;69.44
53754;BME280;39667;52.274;20.964;2023-03-15T05:48:29;99542.77;;;3.40;70.24
53754;BME280;39667;52.274;20.964;2023-03-15T05:51:11;99547.88;;;3.50;70.62
53754;BME280;39667;52.274;20.964;2023-03-15T05:53:58;99554.00;;;3.54;69.96
53754;BME280;39667;52.274;20.964;2023-03-15T05:56:43;99565.16;;;3.57;69.61
53754;BME280;39667;52.274;20.964;2023-03-15T05:59:28;99577.73;;;3.63;70.26
53754;BME280;39667;52.274;20.964;2023-03-15T06:02:17;99590.46;;;3.67;69.03
53754;BME280;39667;52.274;20.964;2023-03-15T06:04:51;99596.05;;;3.69;69.67
53754;BME280;39667;52.274;20.964;2023-03-15T06:07:21;99597.50;;;3.79;69.87
53754;BME280;39667;52.274;20.964;2023-03-15T06:09:48;99592.80;;;3.79;68.49
53754;BME280;39667;52.274;20.964;2023-03-15T06:12:17;99603.55;;;3.70;67.71
53754;BME280;39667;52.274;20.964;2023-03-15T06:14:46;99604.05;;;3.66;68.23
53754;BME280;39667;52.274;20.964;2023-03-15T06:17:13;99600.76;;;3.69;68.66
53754;BME280;39667;52.274;20.964;2023-03-15T06:19:42;99597.86;;;3.81;69.38
53754;BME280;39667;52.274;20.964;2023-03-15T06:22:10;99600.34;;;3.88;68.48
53754;BME280;39667;52.274;20.964;2023-03-15T06:24:48;99605.90;;;3.84;67.78
53754;BME280;39667;52.274;20.964;2023-03-15T06:27:15;99613.20;;;3.83;68.50
53754;BME280;39667;52.274;20.964;2023-03-15T06:29:42;99622.98;;;3.88;68.30
53754;BME280;39667;52.274;20.964;2023-03-15T06:32:09;99629.96;;;3.88;68.43
53754;BME280;39667;52.274;20.964;2023-03-15T06:34:38;99635.14;;;3.82;67.76
53754;BME280;39667;52.274;20.964;2023-03-15T06:37:07;99640.85;;;3.76;67.54
53754;BME280;39667;52.274;20.964;2023-03-15T06:39:36;99643.47;;;3.77;68.26
53754;BME280;39667;52.274;20.964;2023-03-15T06:42:03;99655.70;;;3.81;67.97
53754;BME280;39667;52.274;20.964;2023-03-15T06:44:36;99670.84;;;3.80;67.36
53754;BME280;39667;52.274;20.964;2023-03-15T06:47:06;99682.70;;;3.82;67.52
53754;BME280;39667;52.274;20.964;2023-03-15T06:49:36;99683.73;;;3.81;67.31
53754;BME280;39667;52.274;20.964;2023-03-15T06:52:06;99696.42;;;3.79;67.06
53754;BME280;39667;52.274;20.964;2023-03-15T06:54:35;99711.23;;;3.78;66.96
53754;BME280;39667;52.274;20.964;2023-03-15T06:57:03;99711.25;;;3.79;67.49
53754;BME280;39667;52.274;20.964;2023-03-15T06:59:32;99702.91;;;3.85;67.50
53754;BME280;39667;52.274;20.964;2023-03-15T07:02:00;99710.63;;;3.91;67.51
53754;BME280;39667;52.274;20.964;2023-03-15T07:04:27;99718.85;;;3.96;67.52
53754;BME280;39667;52.274;20.964;2023-03-15T07:06:55;99730.73;;;4.00;67.76
53754;BME280;39667;52.274;20.964;2023-03-15T07:09:22;99734.02;;;3.99;66.75
53754;BME280;39667;52.274;20.964;2023-03-15T07:11:50;99727.03;;;3.93;66.59
53754;BME280;39667;52.274;20.964;2023-03-15T07:14:19;99729.77;;;3.87;66.17
53754;BME280;39667;52.274;20.964;2023-03-15T07:16:48;99736.27;;;3.97;68.07
53754;BME280;39667;52.274;20.964;2023-03-15T07:19:16;99738.63;;;4.07;67.42
53754;BME280;39667;52.274;20.964;2023-03-15T07:21:44;99742.48;;;4.11;67.32
53754;BME280;39667;52.274;20.964;2023-03-15T07:24:15;99741.28;;;4.14;66.83
53754;BME280;39667;52.274;20.964;2023-03-15T07:26:42;99739.59;;;4.21;67.45
53754;BME280;39667;52.274;20.964;2023-03-15T07:29:09;99743.13;;;4.30;67.19
53754;BME280;39667;52.274;20.964;2023-03-15T07:31:37;99743.48;;;4.30;66.86
53754;BME280;39667;52.274;20.964;2023-03-15T07:34:04;99740.70;;;4.32;67.96
53754;BME280;39667;52.274;20.964;2023-03-15T07:36:31;99744.10;;;4.49;68.19
53754;BME280;39667;52.274;20.964;2023-03-15T07:38:58;99743.91;;;4.47;67.27
53754;BME280;39667;52.274;20.964;2023-03-15T07:41:25;99745.11;;;4.43;67.39
53754;BME280;39667;52.274;20.964;2023-03-15T07:43:56;99748.41;;;4.40;66.69
53754;BME280;39667;52.274;20.964;2023-03-15T07:46:24;99746.59;;;4.28;66.49
53754;BME280;39667;52.274;20.964;2023-03-15T07:48:53;99746.36;;;4.18;66.91
53754;BME280;39667;52.274;20.964;2023-03-15T07:51:22;99747.56;;;4.14;67.07
53754;BME280;39667;52.274;20.964;2023-03-15T07:53:49;99746.80;;;4.06;67.13
53754;BME280;39667;52.274;20.964;2023-03-15T07:56:17;99751.01;;;4.08;68.30
53754;BME280;39667;52.274;20.964;2023-03-15T07:58:45;99760.27;;;4.39;69.61
53754;BME280;39667;52.274;20.964;2023-03-15T08:01:12;99762.99;;;4.30;66.58
53754;BME280;39667;52.274;20.964;2023-03-15T08:03:39;99775.05;;;4.11;66.26
53754;BME280;39667;52.274;20.964;2023-03-15T08:06:07;99779.15;;;3.99;66.20
53754;BME280;39667;52.274;20.964;2023-03-15T08:08:35;99788.98;;;3.85;66.23
53754;BME280;39667;52.274;20.964;2023-03-15T08:11:03;99799.17;;;3.76;66.37
53754;BME280;39667;52.274;20.964;2023-03-15T08:13:31;99801.08;;;3.73;66.37
53754;BME280;39667;52.274;20.964;2023-03-15T08:16:00;99807.19;;;3.77;66.59
53754;BME280;39667;52.274;20.964;2023-03-15T08:18:28;99807.23;;;3.82;67.01
53754;BME280;39667;52.274;20.964;2023-03-15T08:20:58;99813.27;;;3.94;66.89
53754;BME280;39667;52.274;20.964;2023-03-15T08:23:25;99820.83;;;4.01;66.46
53754;BME280;39667;52.274;20.964;2023-03-15T08:25:55;99821.92;;;4.08;66.58
53754;BME280;39667;52.274;20.964;2023-03-15T08:28:23;99826.89;;;4.17;66.74
53754;BME280;39667;52.274;20.964;2023-03-15T08:30:51;99830.05;;;4.24;66.51
53754;BME280;39667;52.274;20.964;2023-03-15T08:33:18;99840.73;;;4.28;66.17
53754;BME280;39667;52.274;20.964;2023-03-15T08:35:45;99843.88;;;4.28;66.72
53754;BME280;39667;52.274;20.964;2023-03-15T08:38:12;99845.61;;;4.29;65.91
53754;BME280;39667;52.274;20.964;2023-03-15T08:40:39;99852.27;;;4.31;66.62
53754;BME280;39667;52.274;20.964;2023-03-15T08:43:06;99854.09;;;4.44;66.68
53754;BME280;39667;52.274;20.964;2023-03-15T08:45:34;99855.96;;;4.61;66.31
53754;BME280;39667;52.274;20.964;2023-03-15T08:48:21;99856.06;;;4.78;66.14
53754;BME280;39667;52.274;20.964;2023-03-15T08:50:48;99858.05;;;4.92;65.59
53754;BME280;39667;52.274;20.964;2023-03-15T08:53:16;99863.23;;;5.12;65.43
53754;BME280;39667;52.274;20.964;2023-03-15T08:55:47;99868.20;;;5.30;65.15
53754;BME280;39667;52.274;20.964;2023-03-15T08:58:15;99870.88;;;5.47;63.47
53754;BME280;39667;52.274;20.964;2023-03-15T09:00:43;99870.35;;;5.47;62.82
53754;BME280;39667;52.274;20.964;2023-03-15T09:03:10;99868.62;;;5.49;62.58
53754;BME280;39667;52.274;20.964;2023-03-15T09:05:38;99877.16;;;5.52;62.64
53754;BME280;39667;52.274;20.964;2023-03-15T09:08:05;99881.22;;;5.56;62.11
53754;BME280;39667;52.274;20.964;2023-03-15T09:10:33;99888.90;;;5.55;61.60
53754;BME280;39667;52.274;20.964;2023-03-15T09:13:00;99887.33;;;5.56;61.52
53754;BME280;39667;52.274;20.964;2023-03-15T09:15:27;99896.77;;;5.55;60.81
53754;BME280;39667;52.274;20.964;2023-03-15T09:17:55;99894.84;;;5.56;61.07
53754;BME280;39667;52.274;20.964;2023-03-15T09:20:22;99892.91;;;5.58;60.61
53754;BME280;39667;52.274;20.964;2023-03-15T09:22:55;99892.60;;;5.70;61.54
53754;BME280;39667;52.274;20.964;2023-03-15T09:25:24;99900.34;;;5.80;60.58
53754;BME280;39667;52.274;20.964;2023-03-15T09:27:52;99905.22;;;5.79;59.78
53754;BME280;39667;52.274;20.964;2023-03-15T09:30:20;99906.11;;;5.90;60.95
53754;BME280;39667;52.274;20.964;2023-03-15T09:32:48;99907.49;;;5.82;59.49
53754;BME280;39667;52.274;20.964;2023-03-15T09:35:18;99914.95;;;5.68;59.50
53754;BME280;39667;52.274;20.964;2023-03-15T09:37:47;99910.75;;;5.62;59.04
53754;BME280;39667;52.274;20.964;2023-03-15T09:40:31;99912.67;;;5.61;58.96
53754;BME280;39667;52.274;20.964;2023-03-15T09:46:13;99913.97;;;5.88;57.54
53754;BME280;39667;52.274;20.964;2023-03-15T09:48:53;99911.88;;;5.87;56.32
53754;BME280;39667;52.274;20.964;2023-03-15T09:54:38;99906.46;;;5.91;56.76
53754;BME280;39667;52.274;20.964;2023-03-15T09:57:03;99910.13;;;5.93;57.30
53754;BME280;39667;52.274;20.964;2023-03-15T09:59:35;99907.74;;;6.12;57.94
53754;BME280;39667;52.274;20.964;2023-03-15T10:02:26;99906.20;;;6.27;56.78
53754;BME280;39667;52.274;20.964;2023-03-15T10:05:03;99907.95;;;6.35;55.95
53754;BME280;39667;52.274;20.964;2023-03-15T10:07:31;99906.38;;;6.46;55.28
53754;BME280;39667;52.274;20.964;2023-03-15T10:10:00;99909.88;;;6.64;55.58
53754;BME280;39667;52.274;20.964;2023-03-15T10:12:33;99903.73;;;6.80;55.25
53754;BME280;39667;52.274;20.964;2023-03-15T10:18:29;99900.15;;;7.16;55.05
53754;BME280;39667;52.274;20.964;2023-03-15T10:21:57;99902.59;;;7.22;54.12
53754;BME280;39667;52.274;20.964;2023-03-15T10:24:46;99896.64;;;7.20;54.05
53754;BME280;39667;52.274;20.964;2023-03-15T10:30:14;99914.48;;;7.68;53.68
53754;BME280;39667;52.274;20.964;2023-03-15T10:32:45;99905.31;;;7.80;51.52
53754;BME280;39667;52.274;20.964;2023-03-15T10:35:17;99910.11;;;7.69;51.32
53754;BME280;39667;52.274;20.964;2023-03-15T10:37:45;99908.93;;;7.57;52.03
53754;BME280;39667;52.274;20.964;2023-03-15T10:40:13;99901.21;;;7.58;51.98
53754;BME280;39667;52.274;20.964;2023-03-15T10:42:43;99894.94;;;7.54;51.35
53754;BME280;39667;52.274;20.964;2023-03-15T10:45:22;99898.80;;;7.51;51.39
53754;BME280;39667;52.274;20.964;2023-03-15T10:47:51;99901.84;;;7.35;51.26
53754;BME280;39667;52.274;20.964;2023-03-15T10:50:31;99909.94;;;7.21;51.74
53754;BME280;39667;52.274;20.964;2023-03-15T10:53:01;99909.81;;;7.02;50.68
53754;BME280;39667;52.274;20.964;2023-03-15T10:55:36;99911.77;;;6.95;52.01
53754;BME280;39667;52.274;20.964;2023-03-15T11:00:49;99908.95;;;7.01;51.94
53754;BME280;39667;52.274;20.964;2023-03-15T11:03:21;99908.61;;;6.95;51.55
53754;BME280;39667;52.274;20.964;2023-03-15T11:05:52;99910.20;;;6.85;51.69
53754;BME280;39667;52.274;20.964;2023-03-15T11:08:25;99911.08;;;6.85;51.93
53754;BME280;39667;52.274;20.964;2023-03-15T11:11:20;99906.50;;;6.99;52.98
53754;BME280;39667;52.274;20.964;2023-03-15T11:13:58;99906.64;;;7.14;52.53
53754;BME280;39667;52.274;20.964;2023-03-15T11:16:33;99910.80;;;7.27;52.39
53754;BME280;39667;52.274;20.964;2023-03-15T11:19:02;99907.96;;;7.37;52.37
53754;BME280;39667;52.274;20.964;2023-03-15T11:21:33;99907.05;;;7.48;51.74
53754;BME280;39667;52.274;20.964;2023-03-15T11:24:04;99911.73;;;7.56;51.32
53754;BME280;39667;52.274;20.964;2023-03-15T11:26:37;99908.61;;;7.51;50.32
53754;BME280;39667;52.274;20.964;2023-03-15T11:31:44;99910.43;;;7.32;49.71
53754;BME280;39667;52.274;20.964;2023-03-15T11:34:30;99912.73;;;7.25;50.66
53754;BME280;39667;52.274;20.964;2023-03-15T11:37:06;99913.45;;;7.19;50.02
53754;BME280;39667;52.274;20.964;2023-03-15T11:40:08;99909.40;;;7.26;51.30
53754;BME280;39667;52.274;20.964;2023-03-15T11:43:05;99912.96;;;7.57;50.08
53754;BME280;39667;52.274;20.964;2023-03-15T11:45:43;99924.86;;;7.60;50.45
53754;BME280;39667;52.274;20.964;2023-03-15T11:48:36;99916.30;;;7.57;50.19
53754;BME280;39667;52.274;20.964;2023-03-15T11:51:10;99907.01;;;7.57;50.23
53754;BME280;39667;52.274;20.964;2023-03-15T11:53:44;99908.42;;;7.56;50.40
53754;BME280;39667;52.274;20.964;2023-03-15T11:56:23;99915.58;;;7.60;50.52
53754;BME280;39667;52.274;20.964;2023-03-15T11:59:07;99927.02;;;7.45;50.57
53754;BME280;39667;52.274;20.964;2023-03-15T12:01:42;99924.52;;;7.55;50.55
53754;BME280;39667;52.274;20.964;2023-03-15T12:06:51;99929.77;;;7.61;49.91
53754;BME280;39667;52.274;20.964;2023-03-15T12:12:04;99930.98;;;7.64;49.43
53754;BME280;39667;52.274;20.964;2023-03-15T12:14:35;99934.94;;;7.80;49.63
53754;BME280;39667;52.274;20.964;2023-03-15T12:22:35;99936.52;;;7.81;47.93
53754;BME280;39667;52.274;20.964;2023-03-15T12:25:33;99939.82;;;7.86;48.57
53754;BME280;39667;52.274;20.964;2023-03-15T12:28:09;99940.83;;;7.95;48.48
53754;BME280;39667;52.274;20.964;2023-03-15T12:30:53;99941.56;;;7.89;48.02
53754;BME280;39667;52.274;20.964;2023-03-15T12:33:23;99944.74;;;7.83;48.01
53754;BME280;39667;52.274;20.964;2023-03-15T12:35:58;99949.14;;;7.82;48.73
53754;BME280;39667;52.274;20.964;2023-03-15T12:38:35;99952.80;;;7.85;48.44
53754;BME280;39667;52.274;20.964;2023-03-15T12:41:32;99961.09;;;7.77;47.76
53754;BME280;39667;52.274;20.964;2023-03-15T12:54:50;99980.67;;;7.33;48.49
53754;BME280;39667;52.274;20.964;2023-03-15T12:57:26;99986.45;;;7.34;49.10
53754;BME280;39667;52.274;20.964;2023-03-15T13:06:13;99991.91;;;7.13;49.37
53754;BME280;39667;52.274;20.964;2023-03-15T13:11:44;99996.30;;;7.09;49.99
53754;BME280;39667;52.274;20.964;2023-03-15T13:20:17;100010.84;;;7.15;50.79
53754;BME280;39667;52.274;20.964;2023-03-15T13:22:50;100018.88;;;7.17;50.17
53754;BME280;39667;52.274;20.964;2023-03-15T13:25:37;100021.87;;;7.13;50.41
53754;BME280;39667;52.274;20.964;2023-03-15T13:28:24;100025.17;;;7.23;49.59
53754;BME280;39667;52.274;20.964;2023-03-15T13:30:54;100026.77;;;7.17;50.12
53754;BME280;39667;52.274;20.964;2023-03-15T13:33:26;100022.56;;;7.16;49.72
53754;BME280;39667;52.274;20.964;2023-03-15T13:36:02;100030.45;;;7.13;49.76
53754;BME280;39667;52.274;20.964;2023-03-15T13:38:38;100036.23;;;7.03;48.99
53754;BME280;39667;52.274;20.964;2023-03-15T13:43:42;100040.09;;;6.94;48.45
53754;BME280;39667;52.274;20.964;2023-03-15T13:46:10;100041.13;;;6.96;48.70
53754;BME280;39667;52.274;20.964;2023-03-15T13:48:43;100043.23;;;7.14;49.07
53754;BME280;39667;52.274;20.964;2023-03-15T13:51:32;100036.04;;;7.27;47.96
53754;BME280;39667;52.274;20.964;2023-03-15T13:57:10;100036.00;;;7.53;47.38
53754;BME280;39667;52.274;20.964;2023-03-15T13:59:43;100033.52;;;7.61;46.58
53754;BME280;39667;52.274;20.964;2023-03-15T14:05:04;100042.42;;;7.77;46.20
53754;BME280;39667;52.274;20.964;2023-03-15T14:07:41;100047.53;;;7.64;46.54
53754;BME280;39667;52.274;20.964;2023-03-15T14:10:34;100049.33;;;7.47;46.26
53754;BME280;39667;52.274;20.964;2023-03-15T14:13:51;100049.85;;;7.39;47.39
53754;BME280;39667;52.274;20.964;2023-03-15T14:16:33;100045.83;;;7.42;47.79
53754;BME280;39667;52.274;20.964;2023-03-15T14:19:27;100048.43;;;7.50;47.96
53754;BME280;39667;52.274;20.964;2023-03-15T14:22:01;100054.05;;;7.46;47.26
53754;BME280;39667;52.274;20.964;2023-03-15T14:27:00;100064.41;;;7.32;49.23
53754;BME280;39667;52.274;20.964;2023-03-15T14:29:33;100057.23;;;7.37;48.45
53754;BME280;39667;52.274;20.964;2023-03-15T14:32:06;100065.30;;;7.16;46.53
53754;BME280;39667;52.274;20.964;2023-03-15T14:34:46;100069.81;;;6.78;47.04
53754;BME280;39667;52.274;20.964;2023-03-15T14:37:41;100065.77;;;6.61;47.74
53754;BME280;39667;52.274;20.964;2023-03-15T14:40:17;100070.31;;;6.57;48.60
53754;BME280;39667;52.274;20.964;2023-03-15T14:42:48;100072.06;;;6.54;48.61
53754;BME280;39667;52.274;20.964;2023-03-15T14:45:16;100069.62;;;6.60;49.46
53754;BME280;39667;52.274;20.964;2023-03-15T14:47:48;100075.91;;;6.59;49.22
53754;BME280;39667;52.274;20.964;2023-03-15T14:50:26;100081.52;;;6.60;48.14
53754;BME280;39667;52.274;20.964;2023-03-15T14:52:57;100078.70;;;6.53;48.37
53754;BME280;39667;52.274;20.964;2023-03-15T14:55:33;100082.73;;;6.51;47.90
53754;BME280;39667;52.274;20.964;2023-03-15T14:58:02;100083.25;;;6.49;47.94
53754;BME280;39667;52.274;20.964;2023-03-15T15:00:31;100087.81;;;6.56;48.25
53754;BME280;39667;52.274;20.964;2023-03-15T15:02:59;100091.52;;;6.69;47.91
53754;BME280;39667;52.274;20.964;2023-03-15T15:05:32;100087.67;;;6.68;47.44
53754;BME280;39667;52.274;20.964;2023-03-15T15:08:08;100086.43;;;6.62;47.05
53754;BME280;39667;52.274;20.964;2023-03-15T15:10:36;100085.19;;;6.58;47.95
53754;BME280;39667;52.274;20.964;2023-03-15T15:13:04;100097.44;;;6.58;47.64
53754;BME280;39667;52.274;20.964;2023-03-15T15:15:34;100098.48;;;6.57;47.61
53754;BME280;39667;52.274;20.964;2023-03-15T15:18:27;100098.83;;;6.54;47.24
53754;BME280;39667;52.274;20.964;2023-03-15T15:20:57;100098.99;;;6.50;46.94
53754;BME280;39667;52.274;20.964;2023-03-15T15:25:57;100103.31;;;6.30;47.46
53754;BME280;39667;52.274;20.964;2023-03-15T15:28:26;100108.52;;;6.23;47.53
53754;BME280;39667;52.274;20.964;2023-03-15T15:31:01;100114.79;;;6.18;48.04
53754;BME280;39667;52.274;20.964;2023-03-15T15:33:28;100115.42;;;6.06;47.76